createdAt,value
2022-08-01T00:00:53.307Z,0
2022-08-01T00:06:23.344Z,0
2022-08-01T00:17:10.919Z,0
2022-08-01T00:22:33.568Z,0
2022-08-01T00:27:58.860Z,0
2022-08-01T00:33:26.673Z,0
2022-08-01T00:38:50.714Z,0
2022-08-01T00:44:21.860Z,0
2022-08-01T01:05:41.431Z,0
2022-08-01T01:11:06.311Z,0
2022-08-01T01:16:29.381Z,0
2022-08-01T01:21:51.850Z,0
2022-08-01T01:32:39.795Z,0
2022-08-01T01:38:02.211Z,0
2022-08-01T01:43:33.927Z,0
2022-08-01T01:48:56.881Z,0
2022-08-01T01:54:19.594Z,0
2022-08-01T01:59:42.245Z,0
2022-08-01T02:05:07.789Z,0
2022-08-01T02:10:30.315Z,0
2022-08-01T02:16:03.209Z,0
2022-08-01T02:26:47.910Z,0
2022-08-01T02:32:18.256Z,0
2022-08-01T02:37:47.171Z,0
2022-08-01T02:43:09.985Z,0
2022-08-01T02:48:35.308Z,0
2022-08-01T02:53:57.906Z,0
2022-08-01T02:59:22.716Z,0
2022-08-01T03:04:45.475Z,0
2022-08-01T03:10:08.236Z,0
2022-08-01T03:15:31.093Z,0
2022-08-01T03:20:53.517Z,0
2022-08-01T03:26:37.007Z,0
2022-08-01T03:32:00.963Z,0
2022-08-01T03:37:23.679Z,0
2022-08-01T03:42:46.963Z,0
2022-08-01T03:48:09.947Z,0
2022-08-01T03:53:37.154Z,5
2022-08-01T03:59:03.756Z,10
2022-08-01T04:04:26.621Z,23
2022-08-01T04:09:49.077Z,30.1
2022-08-01T04:26:02.297Z,29.1
2022-08-01T04:31:24.953Z,25
2022-08-01T04:36:47.429Z,33.5
2022-08-01T04:42:30.144Z,40.2
2022-08-01T04:47:56.392Z,39.8
2022-08-01T04:53:21.853Z,94.2
2022-08-01T04:58:44.300Z,110
2022-08-01T05:04:06.853Z,105.7
2022-08-01T05:09:31.545Z,96.1
2022-08-01T05:14:57.337Z,141.1
2022-08-01T05:20:19.873Z,241
2022-08-01T05:25:59.204Z,284.1
2022-08-01T05:31:29.135Z,125.2
2022-08-01T05:36:58.340Z,176.8
2022-08-01T05:42:26.437Z,357.6
2022-08-01T05:47:49.454Z,611.8
2022-08-01T05:53:12.137Z,582.6
2022-08-01T05:58:34.912Z,431.7
2022-08-01T06:09:09.082Z,233.6
2022-08-01T06:20:04.568Z,218.8
2022-08-01T06:25:27.158Z,217.8
2022-08-01T06:30:50.061Z,299.2
2022-08-01T06:36:12.999Z,399.3
2022-08-01T06:41:35.668Z,398.2
2022-08-01T06:46:57.910Z,402.7
2022-08-01T06:52:26.952Z,448.6
2022-08-01T06:57:49.674Z,269.6
2022-08-01T07:03:12.158Z,169.1
2022-08-01T07:08:34.400Z,242.8
2022-08-01T07:13:57.268Z,310.1
2022-08-01T07:19:23.112Z,499.5
2022-08-01T07:24:47.179Z,589.1
2022-08-01T07:30:10.091Z,665.6
2022-08-01T07:52:04.865Z,245.6
2022-08-01T07:57:27.399Z,598.1
2022-08-01T08:02:50.299Z,934.1
2022-08-01T08:08:16.913Z,1168.3
2022-08-01T08:13:39.966Z,952.1
2022-08-01T08:19:02.267Z,891.1
2022-08-01T08:24:27.537Z,925.5
2022-08-01T08:29:59.261Z,835.1
2022-08-01T08:35:54.505Z,1634.4
2022-08-01T08:41:22.000Z,1967.4
2022-08-01T08:46:43.008Z,1307.7
2022-08-01T08:52:09.293Z,1537.3
2022-08-01T08:57:50.144Z,1255.7
2022-08-01T09:03:12.669Z,1035.8
2022-08-01T09:08:35.403Z,1600.5
2022-08-01T09:13:58.907Z,2477.9
2022-08-01T09:19:42.177Z,1438.9
2022-08-01T09:25:05.145Z,1165.2
2022-08-01T09:31:13.017Z,738
2022-08-01T09:36:37.042Z,1056.8
2022-08-01T09:42:02.967Z,2365.6
2022-08-01T09:47:39.292Z,1561.7
2022-08-01T09:53:02.868Z,2111.2
2022-08-01T09:58:26.509Z,3595
2022-08-01T10:09:16.703Z,1763.5
2022-08-01T10:14:41.675Z,4248.5
2022-08-01T10:20:32.519Z,1788.7
2022-08-01T10:25:56.604Z,2105.5
2022-08-01T10:31:31.310Z,1459
2022-08-01T10:36:53.803Z,884
2022-08-01T10:42:17.457Z,5100.9
2022-08-01T10:48:39.357Z,2947.7
2022-08-01T10:54:01.063Z,4782.6
2022-08-01T10:59:59.556Z,1509.7
2022-08-01T11:05:27.297Z,3597.1
2022-08-01T11:10:52.786Z,2606.2
2022-08-01T11:16:24.414Z,1408.6
2022-08-01T11:22:04.190Z,1607.1
2022-08-01T11:27:34.010Z,4008.6
2022-08-01T11:33:12.489Z,1494.7
2022-08-01T11:38:46.999Z,3909.5
2022-08-01T11:55:02.924Z,2217.8
2022-08-01T12:00:37.113Z,4721.6
2022-08-01T12:06:06.702Z,3399
2022-08-01T12:11:37.548Z,3960.8
2022-08-01T12:16:58.540Z,1665.8
2022-08-01T12:22:21.661Z,3932.3
2022-08-01T12:27:48.045Z,1765.5
2022-08-01T12:33:09.849Z,1684
2022-08-01T12:38:32.637Z,1513.5
2022-08-01T12:43:54.662Z,1923.7
2022-08-01T12:49:19.975Z,1530.4
2022-08-01T12:54:45.184Z,1368.3
2022-08-01T13:00:10.021Z,2289.7
2022-08-01T13:05:41.270Z,1894.1
2022-08-01T13:11:03.793Z,3164.8
2022-08-01T13:16:57.717Z,2122.3
2022-08-01T13:22:20.635Z,1860.4
2022-08-01T13:28:03.631Z,1677
2022-08-01T13:33:30.346Z,1652.4
2022-08-01T13:39:38.085Z,2235
2022-08-01T13:45:04.028Z,1898.8
2022-08-01T13:50:30.122Z,2157.9
2022-08-01T13:55:53.375Z,1153.7
2022-08-01T14:01:15.911Z,1475.1
2022-08-01T14:06:39.280Z,2644.6
2022-08-01T14:12:19.115Z,2851.6
2022-08-01T14:17:48.394Z,2025.2
2022-08-01T14:23:12.651Z,4907.6
2022-08-01T14:28:36.382Z,1602.5
2022-08-01T14:33:59.437Z,1366.5
2022-08-01T14:44:50.403Z,2442.1
2022-08-01T14:50:13.155Z,1833.6
2022-08-01T14:55:45.722Z,1096.1
2022-08-01T15:01:08.195Z,1150.3
2022-08-01T15:06:32.645Z,2705.2
2022-08-01T15:12:04.676Z,1068.6
2022-08-01T15:28:23.934Z,2854.3
2022-08-01T15:39:11.580Z,794.8
2022-08-01T15:44:33.669Z,2164.6
2022-08-01T15:49:56.775Z,851.9
2022-08-01T15:55:18.872Z,1044.6
2022-08-01T16:00:41.668Z,861.2
2022-08-01T16:06:09.398Z,737.1
2022-08-01T16:11:32.152Z,801.9
2022-08-01T16:16:57.673Z,773.6
2022-08-01T16:22:19.994Z,664.7
2022-08-01T16:27:42.603Z,758.7
2022-08-01T16:33:59.479Z,672.9
2022-08-01T16:39:25.551Z,653.7
2022-08-01T16:50:18.432Z,601.1
2022-08-01T17:02:02.338Z,578.9
2022-08-01T17:07:28.687Z,610
2022-08-01T17:12:51.332Z,549.2
2022-08-01T17:18:13.676Z,514
2022-08-01T17:23:36.324Z,306.7
2022-08-01T17:28:58.361Z,242.7
2022-08-01T17:34:42.544Z,200.4
2022-08-01T17:40:41.092Z,159.4
2022-08-01T17:46:06.843Z,137.3
2022-08-01T17:51:29.559Z,129.3
2022-08-01T17:56:52.019Z,122.2
2022-08-01T18:02:14.660Z,106.7
2022-08-01T18:08:02.740Z,103
2022-08-01T18:13:26.531Z,95.8
2022-08-01T18:18:57.503Z,88.4
2022-08-01T18:24:19.731Z,82
2022-08-01T18:29:48.988Z,74.8
2022-08-01T18:35:14.801Z,71.4
2022-08-01T18:40:50.437Z,69.6
2022-08-01T19:02:20.857Z,49.1
2022-08-01T19:08:08.421Z,40.4
2022-08-01T19:13:31.415Z,30.1
2022-08-01T19:35:18.197Z,0
2022-08-01T19:40:40.707Z,0
2022-08-01T19:46:03.488Z,0
2022-08-01T19:51:41.710Z,0
2022-08-01T19:57:05.565Z,0
2022-08-01T20:02:28.174Z,0
2022-08-01T20:07:50.522Z,0
2022-08-01T20:13:15.829Z,0
2022-08-01T20:18:38.306Z,0
2022-08-01T20:24:03.506Z,0
2022-08-01T20:29:26.134Z,0
2022-08-01T20:34:49.869Z,0
2022-08-01T20:40:13.398Z,0
2022-08-01T20:45:37.493Z,0
2022-08-01T20:56:22.701Z,0
2022-08-01T21:01:45.157Z,0
2022-08-01T21:07:09.400Z,0
2022-08-01T21:12:32.419Z,0
2022-08-01T21:17:55.731Z,0
2022-08-01T21:23:18.597Z,0
2022-08-01T21:29:00.574Z,0
2022-08-01T21:34:24.877Z,0
2022-08-01T21:39:47.397Z,0
2022-08-01T21:45:09.982Z,0
2022-08-01T21:50:32.365Z,0
2022-08-01T21:55:58.751Z,0
2022-08-01T22:01:23.146Z,0
2022-08-01T22:06:45.701Z,0
2022-08-01T22:17:30.584Z,0
2022-08-01T22:22:54.002Z,0
2022-08-01T22:33:43.738Z,0
2022-08-01T22:39:06.298Z,0
2022-08-01T22:44:37.816Z,0
2022-08-01T22:50:00.537Z,0
2022-08-01T22:55:23.273Z,0
2022-08-01T23:00:45.897Z,0
2022-08-01T23:06:08.393Z,0
2022-08-01T23:11:34.700Z,0
2022-08-01T23:16:57.336Z,0
2022-08-01T23:22:20.091Z,0
2022-08-01T23:28:06.532Z,0
2022-08-01T23:33:29.351Z,0
2022-08-01T23:38:52.220Z,0
2022-08-01T23:44:14.725Z,0
2022-08-01T23:49:54.140Z,0
2022-08-01T23:55:17.697Z,0
